METAR Data
IDs: Format: Raw Decoded Include TAF

Data at: 0554 UTC 19 Aug 2019

KTXK 190453Z AUTO 17009KT 10SM CLR 28/22 A2995 RMK AO2 SLP135 T02830222 $
KTXK 190353Z AUTO 14005KT 10SM FEW120 28/22 A2994 RMK AO2 SLP132 T02830217 $
KTXK 190253Z AUTO 13003KT 10SM CLR 29/22 A2991 RMK AO2 SLP123 T02890217 53019 $
KTXK 190153Z 13003KT 10SM CLR 29/22 A2989 RMK AO2 SLP116 T02940217 $
KTXK 190053Z 18004KT 10SM CLR 32/21 A2986 RMK AO2 SLP106 T03220211 $
KTXK 182353Z 19008KT 10SM CLR 34/21 A2985 RMK AO2 SLP103 T03390206 10356 20322 56020 $
KTXK 182253Z 15005KT 10SM FEW050 35/21 A2987 RMK AO2 SLP107 T03500206 $
KTXK 182153Z 15008KT 10SM CLR 35/20 A2988 RMK AO2 SLP113 T03500200 $
KTXK 182053Z 10SM CLR 35/20 A2991 RMK AO2 SLP123 T03500200 56012 $
KTXK 181953Z 27004KT 10SM FEW049 35/21 A2992 RMK AO2 SLP126 T03500206 $
KTXK 181856Z 24005KT 10SM FEW070 34/21 A2994 RMK AO2 T03440211 $
KTXK 181853Z 10SM FEW049 FEW070 34/21 A2994 RMK AO2 SLP132 T03440211 $
KTXK 181753Z 22006KT 10SM FEW002 FEW041 33/21 A2995 RMK AO2 SLP136 T03280211 10333 20250 50003 $
KTXK 181743Z 21009G17KT 10SM FEW002 SCT040 33/21 A2995 RMK AO2 T03330211 $
KTXK 181653Z 23010KT 10SM FEW033 32/22 A2996 RMK AO2 SLP140 T03220222 $
KTXK 181622Z 23008KT 10SM FEW002 31/22 A2996 RMK AO2 T03110222 $
KTXK 181553Z 22009KT 10SM FEW028 31/22 A2995 RMK AO2 SLP137 T03060222
KTXK 181453Z 23011G19KT 10SM CLR 30/23 A2994 RMK AO2 SLP133 T03000228 53010
KTXK 181353Z 21011G16KT 10SM FEW011 28/24 A2993 RMK AO2 SLP128 T02780239
KTXK 181253Z 19008KT 10SM CLR 26/24 A2991 RMK AO2 SLP124 T02610239
KTXK 181153Z 19007KT 10SM CLR 25/24 A2991 RMK AO2 SLP122 T02500239 10261 20250 53006
KTXK 181053Z 19006KT 10SM CLR 25/23 A2989 RMK AO2 SLP116 T02500233
KTXK 180953Z AUTO 18006KT 10SM CLR 25/23 A2989 RMK AO2 SLP116 T02500233
KTXK 180853Z AUTO 18009KT 10SM CLR 26/23 A2989 RMK AO2 SLP115 T02560233 55002
KTXK 180753Z AUTO 17009KT 10SM CLR 26/23 A2988 RMK AO2 SLP112 T02560228
KTXK 180653Z AUTO 18005KT 10SM CLR 26/23 A2990 RMK AO2 SLP118 T02560228
KTXK 180553Z AUTO 16008KT 10SM CLR 26/22 A2990 RMK AO2 SLP118 T02610222 10339 20261 403560228 50006
KTXK 180453Z AUTO 16009KT 10SM CLR 27/22 A2990 RMK AO2 SLP119 T02670222
KTXK 180353Z AUTO 17007KT 10SM CLR 27/22 A2990 RMK AO2 SLP119 T02720217
KTXK 180253Z AUTO 16010KT 10SM CLR 28/21 A2988 RMK AO2 SLP112 T02830211 53016
KTXK 180207Z 15015G22KT 10SM FEW055 30/21 A2986 RMK AO2 T03000211
KTXK 180153Z 14009KT 10SM FEW055 31/21 A2986 RMK AO2 SLP105 T03060211
KTXK 180053Z 15007KT 10SM CLR 32/21 A2984 RMK AO2 SLP097 T03170211
KTXK 172353Z 18007KT 10SM FEW060 34/21 A2983 RMK AO2 SLP096 T03390206 10356 20328 58010
KTXK 172253Z 17004KT 10SM FEW060 SCT075 35/20 A2984 RMK AO2 SLP100 T03500200
KTXK 172153Z 16009KT 10SM CLR 35/20 A2985 RMK AO2 SLP102 T03500200
KTXK 172053Z VRB04KT 10SM FEW055 35/20 A2986 RMK AO2 SLP105 T03500200 58020
KTXK 171953Z 18010KT 10SM CLR 34/21 A2988 RMK AO2 SLP113 T03440206
KTXK 171853Z 17009KT 10SM FEW041 SCT050 34/21 A2990 RMK AO2 SLP118 T03440211